Time;durP1;ratioP1;P1;durP2;ratioP2;P2;SDS_P1;SDS_P2;PMS_P1;PMS_P2;Temp;Humidity;BMP_temperature;BMP_pressure;BME280_temperature;BME280_humidity;BME280_pressure;Samples;Min_cycle;Max_cycle;Signal;HPM_P1;HPM_P2
2023/06/09 00:00:33;;;;;;;;;;;;;;;25.68;44.53;100891.03;2230002;80;50614;-75
2023/06/09 00:03:37;;;;;;;;;;;;;;;25.70;44.53;100896.23;2224849;78;50407;-75
2023/06/09 00:06:38;;;;;;;;;;;;;;;25.69;44.56;100894.56;2258640;78;24594;-76
2023/06/09 00:09:40;;;;;;;;;;;;;;;25.69;44.75;100898.13;2260583;77;51451;-76
2023/06/09 00:12:42;;;;;;;;;;;;;;;25.68;44.67;100897.80;2215676;78;50895;-75
2023/06/09 00:15:43;;;;;;;;;;;;;;;25.67;45.03;100898.88;2239812;78;51414;-76
2023/06/09 00:18:45;;;;;;;;;;;;;;;25.67;45.01;100889.92;2260376;78;50737;-75
2023/06/09 00:21:49;;;;;;;;;;;;;;;25.68;44.95;100892.92;2260643;77;51489;-76
2023/06/09 00:24:50;;;;;;;;;;;;;;;25.67;45.09;100893.45;2260854;78;22990;-76
2023/06/09 00:27:51;;;;;;;;;;;;;;;25.66;45.05;100882.29;2260768;78;50157;-74
2023/06/09 00:30:53;;;;;;;;;;;;;;;25.67;45.04;100880.44;2239876;78;50203;-75
2023/06/09 00:33:55;;;;;;;;;;;;;;;25.68;44.95;100880.19;2223933;78;50458;-75
2023/06/09 00:36:56;;;;;;;;;;;;;;;25.69;44.77;100883.22;2215181;78;50159;-76
2023/06/09 00:39:58;;;;;;;;;;;;;;;25.68;44.87;100880.19;2239833;77;51521;-75
2023/06/09 00:42:59;;;;;;;;;;;;;;;25.69;44.70;100877.80;2260714;78;51585;-75
2023/06/09 00:46:02;;;;;;;;;;;;;;;25.70;44.66;100875.38;2239808;78;51540;-75
2023/06/09 00:49:03;;;;;;;;;;;;;;;25.70;44.57;100872.67;2239506;78;49602;-76
2023/06/09 00:52:06;;;;;;;;;;;;;;;25.69;44.57;100879.16;2260734;77;50282;-75
2023/06/09 00:55:08;;;;;;;;;;;;;;;25.70;44.63;100883.52;2260594;78;51479;-75
2023/06/09 00:58:09;;;;;;;;;;;;;;;25.69;44.54;100881.87;2260494;78;51403;-75
2023/06/09 01:01:11;;;;;;;;;;;;;;;25.69;44.51;100883.72;2264265;77;50406;-75
2023/06/09 01:04:16;;;;;;;;;;;;;;;25.69;44.48;100883.72;2251616;78;50314;-76
2023/06/09 01:07:30;;;;;;;;;;;;;;;25.68;44.50;100877.48;2260301;78;51454;-75
2023/06/09 01:10:41;;;;;;;;;;;;;;;25.68;44.44;100880.72;2260665;77;22431;-75
2023/06/09 01:13:49;;;;;;;;;;;;;;;25.67;44.37;100878.55;2239650;78;52811;-75
2023/06/09 01:16:57;;;;;;;;;;;;;;;25.67;44.45;100883.97;2260394;78;50454;-75
2023/06/09 01:20:04;;;;;;;;;;;;;;;25.67;44.36;100886.67;2260512;77;50048;-75
2023/06/09 01:23:16;;;;;;;;;;;;;;;25.67;44.38;100887.20;2260126;78;22474;-75
2023/06/09 01:26:15;;;;;;;;;;;;;;;25.67;44.37;100885.32;2241759;78;22392;-77
2023/06/09 01:29:17;;;;;;;;;;;;;;;25.68;44.29;100889.67;2260596;78;50744;-75
2023/06/09 01:32:18;;;;;;;;;;;;;;;25.67;44.25;100885.32;2259474;77;51436;-75
2023/06/09 01:35:20;;;;;;;;;;;;;;;25.67;44.20;100878.55;2238281;78;50371;-75
2023/06/09 01:38:22;;;;;;;;;;;;;;;25.67;44.13;100881.25;2184956;80;51258;-77
2023/06/09 01:41:25;;;;;;;;;;;;;;;25.67;44.14;100879.90;2209429;80;51536;-77
2023/06/09 01:44:26;;;;;;;;;;;;;;;25.67;44.11;100881.25;2230117;78;50335;-77
2023/06/09 01:47:28;;;;;;;;;;;;;;;25.66;44.13;100874.69;2209374;80;50143;-76
2023/06/09 01:50:35;;;;;;;;;;;;;;;25.65;44.15;100890.13;2229966;80;51567;-75
2023/06/09 01:53:36;;;;;;;;;;;;;;;25.65;44.06;100888.78;2216058;78;50704;-74
2023/06/09 01:56:45;;;;;;;;;;;;;;;25.64;44.00;100890.66;2229969;80;50392;-74
2023/06/09 01:59:51;;;;;;;;;;;;;;;25.64;43.91;100887.13;2228992;79;51646;-78
2023/06/09 02:02:54;;;;;;;;;;;;;;;25.64;43.88;100884.42;2224031;78;51343;-75
2023/06/09 02:05:55;;;;;;;;;;;;;;;25.63;43.81;100885.45;2250516;78;50819;-75
2023/06/09 02:08:57;;;;;;;;;;;;;;;25.63;43.77;100885.45;2260549;78;51540;-74
2023/06/09 02:11:59;;;;;;;;;;;;;;;25.62;43.72;100878.39;2260719;77;51514;-76
2023/06/09 02:15:01;;;;;;;;;;;;;;;25.62;43.66;100878.39;2215751;78;51819;-76
2023/06/09 02:18:02;;;;;;;;;;;;;;;25.62;43.61;100879.22;2239582;78;50281;-76
2023/06/09 02:21:04;;;;;;;;;;;;;;;25.62;43.61;100882.45;2239850;78;50718;-77
2023/06/09 02:24:06;;;;;;;;;;;;;;;25.62;43.63;100885.16;2239958;78;50741;-76
2023/06/09 02:27:08;;;;;;;;;;;;;;;25.62;43.52;100878.39;2215633;78;49673;-77
2023/06/09 02:30:09;;;;;;;;;;;;;;;25.61;43.46;100885.70;2239796;77;50325;-76
2023/06/09 02:33:14;;;;;;;;;;;;;;;25.61;43.40;100881.63;2242260;78;50071;-75
2023/06/09 02:36:15;;;;;;;;;;;;;;;25.61;43.42;100880.78;2251429;78;22570;-77
2023/06/09 02:39:17;;;;;;;;;;;;;;;25.60;43.37;100880.48;2215715;78;52472;-76
2023/06/09 02:42:19;;;;;;;;;;;;;;;25.60;43.31;100881.31;2239970;78;51589;-76
2023/06/09 02:45:20;;;;;;;;;;;;;;;25.60;43.31;100877.78;2260679;78;50734;-76
2023/06/09 02:48:22;;;;;;;;;;;;;;;25.59;43.30;100884.27;2239730;78;51486;-76
2023/06/09 02:51:23;;;;;;;;;;;;;;;25.60;43.20;100877.78;2215592;78;52500;-76
2023/06/09 02:54:26;;;;;;;;;;;;;;;25.60;43.16;100885.38;2260727;78;51445;-76
2023/06/09 02:57:28;;;;;;;;;;;;;;;25.60;43.11;100887.27;2260500;78;50671;-77
2023/06/09 03:00:31;;;;;;;;;;;;;;;25.59;43.11;100884.27;2239774;77;50404;-77
2023/06/09 03:03:34;;;;;;;;;;;;;;;25.60;43.10;100887.27;2238965;78;52541;-76
2023/06/09 03:06:43;;;;;;;;;;;;;;;25.59;43.09;100880.20;2229722;79;50425;-76
2023/06/09 03:09:39;;;;;;;;;;;;;;;25.59;43.07;100889.16;2228744;79;22478;-76
2023/06/09 03:12:40;;;;;;;;;;;;;;;25.59;43.06;100889.69;2229951;78;51514;-76
2023/06/09 03:15:42;;;;;;;;;;;;;;;25.58;43.06;100883.41;2209402;80;52348;-75
2023/06/09 03:18:44;;;;;;;;;;;;;;;25.58;43.04;100883.41;2209164;79;51605;-75
2023/06/09 03:21:46;;;;;;;;;;;;;;;25.58;42.99;100890.19;2209411;80;50630;-76
2023/06/09 03:24:48;;;;;;;;;;;;;;;25.58;42.96;100896.96;2229972;78;51541;-76
2023/06/09 03:27:50;;;;;;;;;;;;;;;25.58;42.95;100896.14;2229855;78;50323;-75
2023/06/09 03:30:51;;;;;;;;;;;;;;;25.58;42.94;100905.63;2230008;78;50402;-76
2023/06/09 03:33:53;;;;;;;;;;;;;;;25.57;42.91;100898.55;2251350;78;50740;-76
2023/06/09 03:36:54;;;;;;;;;;;;;;;25.57;42.89;100898.55;2229749;80;50280;-76
2023/06/09 03:39:56;;;;;;;;;;;;;;;25.59;42.86;100897.81;2209282;80;50111;-76
2023/06/09 03:42:58;;;;;;;;;;;;;;;25.58;42.82;100905.63;2209347;80;50654;-74
2023/06/09 03:45:59;;;;;;;;;;;;;;;25.59;42.78;100900.52;2240647;78;50364;-76
2023/06/09 03:49:01;;;;;;;;;;;;;;;25.58;42.74;100900.20;2222082;80;50729;-76
2023/06/09 03:52:06;;;;;;;;;;;;;;;25.58;42.74;100900.20;2184535;80;50965;-75
2023/06/09 03:55:07;;;;;;;;;;;;;;;25.58;42.73;100904.27;2202480;80;22341;-75
2023/06/09 03:58:12;;;;;;;;;;;;;;;25.58;42.73;100919.17;2222184;80;51539;-75
2023/06/09 04:01:12;;;;;;;;;;;;;;;25.58;42.69;100915.93;2202628;80;22378;-76
2023/06/09 04:04:14;;;;;;;;;;;;;;;25.57;42.69;100918.87;2231182;78;51064;-76
2023/06/09 04:07:16;;;;;;;;;;;;;;;25.58;42.67;100916.46;2222619;79;51657;-76
2023/06/09 04:10:17;;;;;;;;;;;;;;;25.57;42.60;100912.11;2222419;80;51471;-76
2023/06/09 04:13:19;;;;;;;;;;;;;;;25.58;42.58;100913.75;2222664;80;51419;-76
2023/06/09 04:16:20;;;;;;;;;;;;;;;25.58;42.53;100910.51;2222628;80;50369;-76
2023/06/09 04:19:24;;;;;;;;;;;;;;;25.58;42.51;100906.97;2202877;80;50406;-74
2023/06/09 04:22:25;;;;;;;;;;;;;;;25.59;42.47;100903.23;2224071;78;21863;-76
2023/06/09 04:25:27;;;;;;;;;;;;;;;25.58;42.52;100901.55;2223509;80;50716;-75
2023/06/09 04:28:30;;;;;;;;;;;;;;;25.58;42.51;100905.09;2223522;80;50706;-76
2023/06/09 04:31:33;;;;;;;;;;;;;;;25.58;42.44;100896.96;2223582;80;51411;-76
2023/06/09 04:34:38;;;;;;;;;;;;;;;25.57;42.25;100903.98;2248352;78;22918;-76
2023/06/09 04:37:38;;;;;;;;;;;;;;;25.59;42.34;100900.52;2238524;78;22338;-75
2023/06/09 04:40:40;;;;;;;;;;;;;;;25.59;42.63;100903.23;2262944;78;51085;-75
2023/06/09 04:43:42;;;;;;;;;;;;;;;25.60;42.71;100904.87;2237949;78;50696;-75
2023/06/09 04:46:43;;;;;;;;;;;;;;;25.63;42.57;100912.55;2237603;78;51450;-75
2023/06/09 04:49:46;;;;;;;;;;;;;;;25.66;42.36;100902.62;2259080;78;51484;-74
2023/06/09 04:52:48;;;;;;;;;;;;;;;25.78;41.67;100902.18;2263340;78;52724;-75
2023/06/09 04:55:52;;;;;;;;;;;;;;;25.86;39.71;100910.58;2248768;78;51482;-75
2023/06/09 04:58:53;;;;;;;;;;;;;;;25.84;37.76;100908.58;2222647;80;50028;-73
2023/06/09 05:01:55;;;;;;;;;;;;;;;25.66;37.31;100903.97;2225238;78;50383;-75
2023/06/09 05:04:57;;;;;;;;;;;;;;;25.66;36.46;100905.33;2210457;78;51077;-76
2023/06/09 05:07:58;;;;;;;;;;;;;;;25.59;35.87;100910.83;2249592;78;50280;-75
2023/06/09 05:11:00;;;;;;;;;;;;;;;25.57;35.76;100900.73;2227847;78;52650;-76
2023/06/09 05:14:01;;;;;;;;;;;;;;;25.47;35.27;100907.19;2223271;78;50761;-75
2023/06/09 05:17:03;;;;;;;;;;;;;;;25.42;34.75;100897.02;2224982;78;50411;-76
2023/06/09 05:20:06;;;;;;;;;;;;;;;25.41;34.21;100906.73;2226071;80;51518;-75
2023/06/09 05:23:09;;;;;;;;;;;;;;;25.42;34.92;100901.61;2224751;80;50809;-74
2023/06/09 05:26:11;;;;;;;;;;;;;;;25.51;35.24;100903.00;2224001;80;50632;-75
2023/06/09 05:29:12;;;;;;;;;;;;;;;25.60;35.39;100895.39;2203524;80;52543;-77
2023/06/09 05:32:14;;;;;;;;;;;;;;;25.65;35.50;100902.33;2234994;78;51395;-75
2023/06/09 05:35:17;;;;;;;;;;;;;;;25.72;35.36;100908.52;2243437;78;50635;-74
2023/06/09 05:38:23;;;;;;;;;;;;;;;25.76;35.36;100914.30;2255163;79;51766;-76
2023/06/09 05:41:23;;;;;;;;;;;;;;;25.83;35.52;100915.89;2254649;77;21881;-76
2023/06/09 05:44:25;;;;;;;;;;;;;;;25.89;35.39;100919.61;2234557;79;50537;-76
2023/06/09 05:47:27;;;;;;;;;;;;;;;25.94;34.99;100914.34;2234558;79;50249;-75
2023/06/09 05:50:31;;;;;;;;;;;;;;;25.97;35.10;100915.77;2255233;77;51563;-75
2023/06/09 05:53:34;;;;;;;;;;;;;;;26.02;34.98;100921.34;2222997;79;49977;-76
2023/06/09 05:56:37;;;;;;;;;;;;;;;26.08;35.02;100920.98;2204541;80;50772;-76
2023/06/09 05:59:39;;;;;;;;;;;;;;;26.11;34.76;100930.84;2225372;80;21798;-75
2023/06/09 06:02:45;;;;;;;;;;;;;;;26.17;34.60;100927.21;2210604;78;51435;-77
2023/06/09 06:05:46;;;;;;;;;;;;;;;26.20;34.53;100930.85;2246914;78;22333;-76
2023/06/09 06:08:48;;;;;;;;;;;;;;;26.22;34.45;100930.07;2238812;77;51702;-77
2023/06/09 06:11:49;;;;;;;;;;;;;;;26.35;32.32;100926.91;2237777;79;51500;-77
2023/06/09 06:14:51;;;;;;;;;;;;;;;26.19;31.12;100933.78;2246939;79;50232;-77
2023/06/09 06:17:52;;;;;;;;;;;;;;;26.01;29.96;100935.97;2208015;79;50053;-76
2023/06/09 06:20:54;;;;;;;;;;;;;;;25.67;29.77;100936.81;2232749;79;51449;-76
2023/06/09 06:23:56;;;;;;;;;;;;;;;25.54;30.12;100941.01;2227815;79;51593;-77
2023/06/09 06:26:57;;;;;;;;;;;;;;;25.65;31.09;100942.98;2231325;79;50481;-76
2023/06/09 06:29:59;;;;;;;;;;;;;;;25.71;31.17;100942.07;2204899;80;53438;-77
2023/06/09 06:33:03;;;;;;;;;;;;;;;25.83;31.08;100932.69;2225150;79;50628;-76
2023/06/09 06:36:04;;;;;;;;;;;;;;;25.91;31.14;100941.08;2261313;77;22551;-77
2023/06/09 06:39:07;;;;;;;;;;;;;;;26.00;31.28;100949.23;2244469;77;23596;-77
2023/06/09 06:42:10;;;;;;;;;;;;;;;26.05;31.30;100948.03;2244081;78;50975;-77
2023/06/09 06:45:12;;;;;;;;;;;;;;;26.11;31.33;100949.83;2263865;77;51811;-77
2023/06/09 06:48:13;;;;;;;;;;;;;;;26.15;31.36;100948.33;2259231;77;51475;-74
2023/06/09 06:51:15;;;;;;;;;;;;;;;26.21;31.39;100947.41;2235630;79;50614;-75
2023/06/09 06:54:16;;;;;;;;;;;;;;;26.22;31.52;100950.95;2206265;80;52662;-76
2023/06/09 06:57:18;;;;;;;;;;;;;;;26.25;31.51;100949.95;2226920;80;50733;-75
2023/06/09 07:00:20;;;;;;;;;;;;;;;26.25;31.67;100952.67;2228522;77;50712;-73
2023/06/09 07:03:26;;;;;;;;;;;;;;;26.27;31.60;100951.09;2245002;77;50717;-76
2023/06/09 07:06:27;;;;;;;;;;;;;;;26.29;31.67;100953.06;2223807;78;51767;-77
2023/06/09 07:09:29;;;;;;;;;;;;;;;26.29;31.66;100952.53;2255818;78;51488;-76
2023/06/09 07:12:32;;;;;;;;;;;;;;;26.31;31.57;100952.81;2229588;78;50656;-75
2023/06/09 07:15:36;;;;;;;;;;;;;;;26.32;31.57;100954.49;2263499;78;51816;-74
2023/06/09 07:18:37;;;;;;;;;;;;;;;26.31;31.53;100959.09;2232423;77;21934;-74
2023/06/09 07:21:39;;;;;;;;;;;;;;;26.34;31.43;100963.23;2260489;77;51362;-76
2023/06/09 07:24:40;;;;;;;;;;;;;;;26.35;31.55;100966.23;2262228;77;51570;-76
2023/06/09 07:27:42;;;;;;;;;;;;;;;26.37;31.40;100958.70;2261221;78;51402;-76
2023/06/09 07:30:44;;;;;;;;;;;;;;;26.41;31.38;100962.61;2241272;78;52483;-75
2023/06/09 07:33:46;;;;;;;;;;;;;;;26.44;31.42;100962.17;2262590;77;51518;-76
2023/06/09 07:36:50;;;;;;;;;;;;;;;26.43;31.31;100964.57;2260292;77;50686;-76
2023/06/09 07:39:52;;;;;;;;;;;;;;;26.45;31.44;100958.39;2257988;78;51381;-76
2023/06/09 07:42:53;;;;;;;;;;;;;;;26.45;31.29;100959.22;2196027;80;51692;-76
2023/06/09 07:45:56;;;;;;;;;;;;;;;26.47;31.20;100969.85;2224829;80;51523;-75
2023/06/09 07:48:58;;;;;;;;;;;;;;;26.45;31.20;100958.39;2224619;80;50786;-76
2023/06/09 07:51:59;;;;;;;;;;;;;;;26.41;31.36;100963.45;2225056;80;50122;-75
2023/06/09 07:55:01;;;;;;;;;;;;;;;26.43;31.41;100961.32;2204649;80;51617;-76
2023/06/09 07:58:03;;;;;;;;;;;;;;;26.43;31.42;100965.92;2224896;79;50713;-76
2023/06/09 08:01:04;;;;;;;;;;;;;;;26.45;31.41;100965.17;2224843;80;50608;-75
2023/06/09 08:04:06;;;;;;;;;;;;;;;26.45;31.34;100963.28;2224913;79;50821;-76
2023/06/09 08:07:08;;;;;;;;;;;;;;;26.40;31.49;100963.14;2225146;79;50930;-77
2023/06/09 08:10:10;;;;;;;;;;;;;;;26.42;31.29;100958.32;2231552;78;51453;-76
2023/06/09 08:13:15;;;;;;;;;;;;;;;26.45;31.31;100959.22;2220414;79;50513;-74
2023/06/09 08:16:15;;;;;;;;;;;;;;;26.41;31.47;100965.32;2225444;79;22444;-76
2023/06/09 08:19:16;;;;;;;;;;;;;;;26.42;31.51;100957.50;2225985;79;51732;-76
2023/06/09 08:22:19;;;;;;;;;;;;;;;26.44;31.61;100948.61;2226328;79;50180;-76
2023/06/09 08:25:21;;;;;;;;;;;;;;;26.44;31.58;100956.75;2242458;79;50574;-76
2023/06/09 08:28:25;;;;;;;;;;;;;;;26.42;31.72;100953.42;2243220;79;50713;-77
2023/06/09 08:31:27;;;;;;;;;;;;;;;26.40;31.78;100959.07;2226923;79;51649;-77
2023/06/09 08:34:29;;;;;;;;;;;;;;;26.44;31.71;100959.46;2243470;79;50675;-75
2023/06/09 08:37:32;;;;;;;;;;;;;;;26.43;31.79;100961.86;2202777;79;51865;-77
2023/06/09 08:40:35;;;;;;;;;;;;;;;26.41;31.82;100958.03;2245617;79;50791;-77
2023/06/09 08:43:36;;;;;;;;;;;;;;;26.38;31.95;100953.57;2220014;79;50170;-77
2023/06/09 08:46:38;;;;;;;;;;;;;;;26.37;31.96;100957.35;2227235;79;50646;-77
2023/06/09 08:49:39;;;;;;;;;;;;;;;26.40;31.91;100960.42;2240725;79;50617;-75
2023/06/09 08:52:41;;;;;;;;;;;;;;;26.40;31.92;100955.53;2239127;79;50622;-74
2023/06/09 08:55:43;;;;;;;;;;;;;;;26.35;32.12;100960.28;2222117;79;52395;-76
2023/06/09 08:58:44;;;;;;;;;;;;;;;26.34;32.17;100951.85;2239032;79;50418;-75
2023/06/09 09:01:47;;;;;;;;;;;;;;;26.35;32.19;100954.03;2239204;79;50206;-76
2023/06/09 09:04:49;;;;;;;;;;;;;;;26.35;32.21;100954.85;2239032;79;51467;-75
2023/06/09 09:07:51;;;;;;;;;;;;;;;26.35;32.19;100960.81;2238897;79;50677;-76
2023/06/09 09:10:53;;;;;;;;;;;;;;;26.35;32.22;100960.28;2217101;79;50915;-77
2023/06/09 09:13:54;;;;;;;;;;;;;;;26.35;32.36;100960.81;2252748;79;50717;-77
2023/06/09 09:16:56;;;;;;;;;;;;;;;26.32;32.46;100958.56;2252595;79;50559;-77
2023/06/09 09:19:58;;;;;;;;;;;;;;;26.33;32.50;100958.84;2252759;77;50254;-77
2023/06/09 09:22:59;;;;;;;;;;;;;;;26.31;32.51;100959.59;2232004;79;49612;-77
2023/06/09 09:26:07;;;;;;;;;;;;;;;26.28;32.64;100964.45;2232072;79;51539;-76
2023/06/09 09:29:06;;;;;;;;;;;;;;;26.28;32.60;100959.02;2251869;79;22825;-76
2023/06/09 09:32:07;;;;;;;;;;;;;;;26.26;32.70;100957.06;2230575;78;50253;-77
2023/06/09 09:35:10;;;;;;;;;;;;;;;26.26;32.69;100953.52;2206630;79;51233;-76
2023/06/09 09:38:12;;;;;;;;;;;;;;;26.22;32.85;100953.13;2222185;80;50247;-77
2023/06/09 09:41:14;;;;;;;;;;;;;;;26.23;32.83;100947.17;2232125;78;50683;-77
2023/06/09 09:44:19;;;;;;;;;;;;;;;26.23;32.90;100945.81;2208796;79;50656;-77
2023/06/09 09:47:22;;;;;;;;;;;;;;;26.22;32.90;100943.63;2221930;78;50934;-77
2023/06/09 09:50:26;;;;;;;;;;;;;;;26.21;32.96;100940.63;2202412;80;50715;-77
2023/06/09 09:53:27;;;;;;;;;;;;;;;26.19;33.05;100940.02;2238860;79;50306;-76
2023/06/09 09:56:29;;;;;;;;;;;;;;;26.22;33.13;100941.45;2251107;78;51403;-77
2023/06/09 09:59:30;;;;;;;;;;;;;;;26.20;33.19;100939.49;2215263;79;52714;-77
2023/06/09 10:02:32;;;;;;;;;;;;;;;26.19;33.20;100940.02;2235891;79;51378;-77
2023/06/09 10:05:34;;;;;;;;;;;;;;;26.19;33.30;100948.16;2235926;79;51399;-76
2023/06/09 10:08:36;;;;;;;;;;;;;;;26.19;33.39;100940.56;2235785;79;50414;-76
2023/06/09 10:11:38;;;;;;;;;;;;;;;26.16;33.46;100941.84;2209208;80;50093;-77
2023/06/09 10:14:39;;;;;;;;;;;;;;;26.18;33.56;100938.92;2229836;80;50373;-77
2023/06/09 10:17:41;;;;;;;;;;;;;;;26.21;33.57;100935.20;2250121;78;50253;-76
2023/06/09 10:20:43;;;;;;;;;;;;;;;26.17;33.59;100935.34;2257403;78;50758;-77
2023/06/09 10:23:44;;;;;;;;;;;;;;;26.18;33.65;100942.45;2239810;78;49632;-77
2023/06/09 10:26:49;;;;;;;;;;;;;;;26.18;33.80;100938.37;2260564;78;51601;-77
2023/06/09 10:29:51;;;;;;;;;;;;;;;26.17;33.83;100933.99;2260357;78;50644;-77
2023/06/09 10:33:00;;;;;;;;;;;;;;;26.14;33.87;100933.09;2260656;78;50480;-77
2023/06/09 10:36:05;;;;;;;;;;;;;;;26.18;33.87;100922.64;2240273;78;51080;-77
2023/06/09 10:39:13;;;;;;;;;;;;;;;26.17;33.97;100924.50;2261004;78;22313;-77
2023/06/09 10:42:17;;;;;;;;;;;;;;;26.18;33.97;100930.78;2191456;81;50313;-76
2023/06/09 10:45:19;;;;;;;;;;;;;;;26.17;34.02;100927.21;2191597;81;50225;-77
2023/06/09 10:48:39;;;;;;;;;;;;;;;26.16;34.02;100924.22;2178560;81;51677;-77
2023/06/09 10:51:42;;;;;;;;;;;;;;;26.15;34.09;100912.22;2197215;81;51336;-77
2023/06/09 10:54:44;;;;;;;;;;;;;;;26.14;34.11;100922.78;2197112;81;51470;-78
2023/06/09 10:57:46;;;;;;;;;;;;;;;26.14;34.15;100915.47;2197073;80;51396;-77
2023/06/09 11:01:07;;;;;;;;;;;;;;;26.13;34.18;100909.76;2150098;81;50086;-77
2023/06/09 11:04:26;;;;;;;;;;;;;;;26.15;34.15;100918.50;2210155;80;50866;-77
2023/06/09 11:07:29;;;;;;;;;;;;;;;26.15;34.23;100909.01;2189796;81;50455;-76
2023/06/09 11:10:30;;;;;;;;;;;;;;;26.14;34.26;100901.91;2189740;81;50511;-77
2023/06/09 11:13:39;;;;;;;;;;;;;;;26.16;34.23;100905.77;2166580;81;52520;-76
2023/06/09 11:16:42;;;;;;;;;;;;;;;26.16;34.37;100891.66;2197563;80;50698;-77
2023/06/09 11:19:44;;;;;;;;;;;;;;;26.14;34.48;100891.06;2217697;78;50498;-78
2023/06/09 11:22:49;;;;;;;;;;;;;;;26.13;34.42;100884.52;2259419;78;50863;-77
2023/06/09 11:25:51;;;;;;;;;;;;;;;26.14;35.07;100877.50;2259139;78;50424;-77
2023/06/09 11:28:52;;;;;;;;;;;;;;;26.15;35.07;100883.24;2258937;78;50688;-77
2023/06/09 11:31:54;;;;;;;;;;;;;;;26.16;35.06;100880.81;2259024;78;51510;-77
2023/06/09 11:34:56;;;;;;;;;;;;;;;26.16;35.03;100871.33;2259208;78;50752;-77
2023/06/09 11:37:59;;;;;;;;;;;;;;;26.15;34.99;100870.19;2257234;78;50437;-76
2023/06/09 11:41:01;;;;;;;;;;;;;;;26.15;34.93;100875.11;2226708;78;50580;-75
2023/06/09 11:44:03;;;;;;;;;;;;;;;26.16;35.00;100871.33;2245760;78;50801;-76
2023/06/09 11:47:06;;;;;;;;;;;;;;;26.18;35.06;100869.75;2238946;79;50600;-77
2023/06/09 11:50:12;;;;;;;;;;;;;;;26.17;35.17;100861.30;2221463;79;51675;-76
2023/06/09 11:53:15;;;;;;;;;;;;;;;26.17;35.18;100859.41;2247521;79;51531;-76
2023/06/09 11:56:16;;;;;;;;;;;;;;;26.17;35.25;100862.12;2241695;78;50111;-75
2023/06/09 11:59:18;;;;;;;;;;;;;;;26.17;35.27;100856.69;2241956;78;50388;-76
2023/06/09 12:02:20;;;;;;;;;;;;;;;26.15;35.31;100853.91;2224685;79;52775;-76
2023/06/09 12:05:23;;;;;;;;;;;;;;;26.17;35.37;100854.52;2241698;79;50330;-76
2023/06/09 12:08:24;;;;;;;;;;;;;;;26.18;35.37;100860.26;2242166;78;51552;-76
2023/06/09 12:11:27;;;;;;;;;;;;;;;26.16;35.41;100865.08;2242514;78;51511;-76
2023/06/09 12:14:29;;;;;;;;;;;;;;;26.17;35.44;100855.88;2225567;78;51129;-77
2023/06/09 12:17:31;;;;;;;;;;;;;;;26.18;35.39;100860.26;2245645;78;50663;-76
2023/06/09 12:20:33;;;;;;;;;;;;;;;26.19;35.42;100851.05;2259008;77;50872;-76
2023/06/09 12:23:35;;;;;;;;;;;;;;;26.19;35.39;100844.27;2239535;79;50771;-76
2023/06/09 12:26:42;;;;;;;;;;;;;;;26.18;35.43;100843.45;2259696;78;50758;-76
2023/06/09 12:29:43;;;;;;;;;;;;;;;26.18;35.36;100846.16;2238238;79;50305;-75
2023/06/09 12:32:45;;;;;;;;;;;;;;;26.19;35.40;100849.16;2275990;77;50090;-76
2023/06/09 12:35:47;;;;;;;;;;;;;;;26.20;35.35;100841.34;2243713;78;50650;-76
2023/06/09 12:38:49;;;;;;;;;;;;;;;26.20;35.39;100839.98;2232402;79;51754;-76
2023/06/09 12:41:51;;;;;;;;;;;;;;;26.22;35.34;100843.81;2232822;79;50324;-77
2023/06/09 12:44:52;;;;;;;;;;;;;;;26.22;35.30;100843.27;2253189;79;51527;-77
2023/06/09 12:47:54;;;;;;;;;;;;;;;26.22;35.35;100837.03;2232348;79;52427;-77
2023/06/09 12:50:58;;;;;;;;;;;;;;;26.23;35.32;100846.30;2208227;79;52361;-76
2023/06/09 12:53:59;;;;;;;;;;;;;;;26.23;35.35;100843.59;2253553;78;25324;-76
2023/06/09 12:57:01;;;;;;;;;;;;;;;26.18;35.91;100836.67;2253326;79;50469;-75
2023/06/09 13:00:04;;;;;;;;;;;;;;;26.24;35.94;100838.45;2253056;79;50403;-76
2023/06/09 13:03:07;;;;;;;;;;;;;;;26.26;36.08;100843.13;2234269;78;51659;-74
2023/06/09 13:06:09;;;;;;;;;;;;;;;26.23;36.27;100832.74;2216133;79;50673;-76
2023/06/09 13:09:11;;;;;;;;;;;;;;;26.23;36.53;100833.24;2239158;79;50398;-75
2023/06/09 13:12:12;;;;;;;;;;;;;;;26.25;36.45;100826.53;2253421;78;51526;-76
2023/06/09 13:15:14;;;;;;;;;;;;;;;26.23;36.31;100824.60;2250823;79;51486;-74
2023/06/09 13:18:17;;;;;;;;;;;;;;;26.26;36.59;100817.36;2232271;79;50757;-75
2023/06/09 13:21:19;;;;;;;;;;;;;;;26.27;36.21;100812.22;2253015;79;51542;-75
2023/06/09 13:24:20;;;;;;;;;;;;;;;26.29;36.18;100819.59;2232323;79;51477;-75
2023/06/09 13:27:22;;;;;;;;;;;;;;;26.28;35.90;100814.39;2184327;80;49624;-75
2023/06/09 13:30:23;;;;;;;;;;;;;;;26.33;36.33;100812.35;2240402;78;50220;-75
2023/06/09 13:33:25;;;;;;;;;;;;;;;26.34;36.18;100815.38;2201945;80;51589;-75
2023/06/09 13:36:27;;;;;;;;;;;;;;;26.32;36.15;100811.53;2243266;78;50255;-75
2023/06/09 13:39:28;;;;;;;;;;;;;;;26.33;36.15;100802.32;2204222;79;51103;-75
2023/06/09 13:42:30;;;;;;;;;;;;;;;26.36;36.02;100802.39;2222465;80;50633;-75
2023/06/09 13:45:31;;;;;;;;;;;;;;;26.35;35.97;100806.99;2222501;80;51551;-76
2023/06/09 13:48:33;;;;;;;;;;;;;;;26.38;35.80;100804.34;2202094;80;50030;-78
2023/06/09 13:51:36;;;;;;;;;;;;;;;26.34;35.82;100805.89;2178764;80;51853;-78
2023/06/09 13:54:38;;;;;;;;;;;;;;;26.31;35.90;100799.55;2202445;80;51558;-78
2023/06/09 13:57:42;;;;;;;;;;;;;;;26.33;35.92;100805.57;2202010;80;50618;-78
2023/06/09 14:00:43;;;;;;;;;;;;;;;26.32;35.88;100803.93;2202473;80;22373;-77
2023/06/09 14:03:44;;;;;;;;;;;;;;;26.31;35.95;100802.25;2177793;80;49488;-78
2023/06/09 14:06:46;;;;;;;;;;;;;;;26.28;35.95;100798.97;2246834;78;50646;-78
2023/06/09 14:09:48;;;;;;;;;;;;;;;26.29;35.97;100797.08;2231457;78;50307;-78
2023/06/09 14:12:50;;;;;;;;;;;;;;;26.28;36.00;100797.61;2202272;80;50300;-78
2023/06/09 14:15:52;;;;;;;;;;;;;;;26.28;36.00;100792.69;2218032;79;51259;-78
2023/06/09 14:18:53;;;;;;;;;;;;;;;26.30;36.03;100790.58;2222231;80;51548;-78
2023/06/09 14:21:55;;;;;;;;;;;;;;;26.31;36.01;100788.19;2202276;80;51461;-78
2023/06/09 14:24:57;;;;;;;;;;;;;;;26.32;35.98;100780.33;2222481;80;51654;-78
2023/06/09 14:27:59;;;;;;;;;;;;;;;26.33;36.01;100774.38;2222246;80;51514;-78
2023/06/09 14:31:00;;;;;;;;;;;;;;;26.32;35.98;100771.38;2222356;80;51549;-78
2023/06/09 14:34:02;;;;;;;;;;;;;;;26.35;35.95;100777.69;2201900;80;53492;-78
2023/06/09 14:37:04;;;;;;;;;;;;;;;26.35;35.95;100772.27;2231574;78;50743;-77
2023/06/09 14:40:05;;;;;;;;;;;;;;;26.35;35.97;100772.27;2208237;78;51122;-78
2023/06/09 14:43:09;;;;;;;;;;;;;;;26.36;36.01;100773.40;2238201;78;50263;-78
2023/06/09 14:46:10;;;;;;;;;;;;;;;26.36;36.04;100763.05;2258844;78;51439;-79
2023/06/09 14:49:12;;;;;;;;;;;;;;;26.37;36.06;100751.16;2258827;78;50364;-78
2023/06/09 14:52:13;;;;;;;;;;;;;;;26.37;36.09;100749.80;2262924;77;51036;-78
2023/06/09 14:55:23;;;;;;;;;;;;;;;26.40;36.09;100759.64;2259037;78;51577;-78
2023/06/09 14:58:21;;;;;;;;;;;;;;;26.37;36.12;100757.41;2258426;78;22388;-78
2023/06/09 15:01:23;;;;;;;;;;;;;;;26.40;36.12;100765.61;2258892;78;51309;-78
2023/06/09 15:04:25;;;;;;;;;;;;;;;26.39;36.16;100762.61;2262806;78;50983;-77
2023/06/09 15:07:26;;;;;;;;;;;;;;;26.39;36.19;100759.89;2247300;78;50342;-78
2023/06/09 15:10:28;;;;;;;;;;;;;;;26.39;36.23;100754.47;2224035;79;50729;-78
2023/06/09 15:13:30;;;;;;;;;;;;;;;26.39;36.26;100762.61;2222240;80;50301;-77
2023/06/09 15:16:31;;;;;;;;;;;;;;;26.41;36.26;100765.89;2201809;80;50083;-78
2023/06/09 15:19:33;;;;;;;;;;;;;;;26.41;36.26;100765.89;2202066;80;50778;-78
2023/06/09 15:22:37;;;;;;;;;;;;;;;26.40;36.27;100758.83;2202028;80;51486;-78
2023/06/09 15:25:39;;;;;;;;;;;;;;;26.39;36.29;100772.11;2202400;80;22939;-78
2023/06/09 15:28:41;;;;;;;;;;;;;;;26.41;36.29;100759.96;2222361;80;51544;-78
2023/06/09 15:31:42;;;;;;;;;;;;;;;26.41;36.32;100769.97;2222752;80;51524;-78
2023/06/09 15:34:44;;;;;;;;;;;;;;;26.42;36.34;100767.03;2238587;78;52300;-77